createdAt,value
2019-02-21T00:01:41.415Z,13.00
2019-02-21T00:04:11.259Z,13.00
2019-02-21T00:06:43.171Z,12.00
2019-02-21T00:09:13.191Z,11.60
2019-02-21T00:11:44.872Z,10.40
2019-02-21T00:14:14.441Z,9.40
2019-02-21T00:16:44.622Z,11.20
2019-02-21T00:19:14.680Z,10.00
2019-02-21T00:21:44.360Z,10.80
2019-02-21T00:24:14.111Z,9.40
2019-02-21T00:26:44.343Z,7.00
2019-02-21T00:29:14.043Z,6.00
2019-02-21T00:31:44.006Z,12.00
2019-02-21T00:34:13.744Z,11.60
2019-02-21T00:36:43.302Z,11.80
2019-02-21T00:39:13.198Z,13.00
2019-02-21T00:41:43.294Z,12.60
2019-02-21T00:44:12.969Z,11.60
2019-02-21T00:46:42.915Z,11.00
2019-02-21T00:49:15.858Z,17.20
2019-02-21T00:51:45.477Z,10.40
2019-02-21T00:54:15.523Z,12.00
2019-02-21T00:56:45.392Z,10.40
2019-02-21T00:59:15.252Z,11.60
2019-02-21T01:01:45.191Z,11.20
2019-02-21T01:04:17.124Z,13.00
2019-02-21T01:06:46.713Z,10.00
2019-02-21T01:09:16.916Z,12.00
2019-02-21T01:11:47.093Z,11.60
2019-02-21T01:14:16.914Z,12.40
2019-02-21T01:16:46.738Z,15.20
2019-02-21T01:19:16.405Z,13.80
2019-02-21T01:21:45.948Z,10.00
2019-02-21T01:24:16.395Z,10.80
2019-02-21T01:26:46.396Z,9.40
2019-02-21T01:29:16.203Z,13.60
2019-02-21T01:31:46.420Z,12.00
2019-02-21T01:34:16.349Z,6.80
2019-02-21T01:36:46.267Z,12.00
2019-02-21T01:39:15.894Z,13.00
2019-02-21T01:41:45.706Z,6.40
2019-02-21T01:44:17.363Z,9.40
2019-02-21T01:46:49.080Z,11.20
2019-02-21T01:49:20.043Z,14.20
2019-02-21T01:51:49.854Z,13.00
2019-02-21T01:54:19.498Z,12.00
2019-02-21T01:56:49.302Z,12.60
2019-02-21T01:59:18.923Z,10.80
2019-02-21T02:01:48.644Z,14.20
2019-02-21T02:04:18.320Z,10.00
2019-02-21T02:06:48.033Z,13.80
2019-02-21T02:09:18.279Z,10.00
2019-02-21T02:11:48.093Z,12.80
2019-02-21T02:14:17.828Z,11.20
2019-02-21T02:16:47.513Z,10.80
2019-02-21T02:19:19.023Z,12.00
2019-02-21T02:21:48.941Z,12.20
2019-02-21T02:24:18.540Z,12.00
2019-02-21T02:26:48.306Z,10.80
2019-02-21T02:29:18.077Z,9.80
2019-02-21T02:31:48.630Z,12.00
2019-02-21T02:34:18.333Z,13.40
2019-02-21T02:36:48.230Z,9.00
2019-02-21T02:39:18.166Z,9.00
2019-02-21T02:41:47.886Z,13.40
2019-02-21T02:44:17.728Z,13.40
2019-02-21T02:46:47.422Z,10.40
2019-02-21T02:49:17.110Z,16.00
2019-02-21T02:51:47.522Z,14.60
2019-02-21T02:54:21.179Z,9.20
2019-02-21T02:56:51.263Z,14.40
2019-02-21T02:59:21.176Z,13.80
2019-02-21T03:01:50.958Z,11.20
2019-02-21T03:04:20.642Z,10.00
2019-02-21T03:06:50.455Z,9.40
2019-02-21T03:09:21.133Z,12.80
2019-02-21T03:11:54.058Z,12.00
2019-02-21T03:14:23.925Z,15.20
2019-02-21T03:16:54.079Z,15.40
2019-02-21T03:19:23.848Z,11.60
2019-02-21T03:21:53.543Z,13.00
2019-02-21T03:24:23.405Z,13.00
2019-02-21T03:26:53.838Z,12.60
2019-02-21T03:29:23.686Z,15.20
2019-02-21T03:31:55.596Z,11.20
2019-02-21T03:34:33.805Z,14.80
2019-02-21T03:37:03.482Z,15.00
2019-02-21T03:39:33.524Z,11.60
2019-02-21T03:42:03.108Z,11.20
2019-02-21T03:44:32.606Z,15.80
2019-02-21T03:47:02.288Z,15.00
2019-02-21T03:49:33.057Z,13.40
2019-02-21T03:52:02.998Z,11.20
2019-02-21T03:54:32.471Z,13.40
2019-02-21T03:57:02.031Z,17.20
2019-02-21T03:59:34.645Z,12.40
2019-02-21T04:02:05.566Z,6.80
2019-02-21T04:04:35.341Z,13.40
2019-02-21T04:07:06.018Z,9.20
2019-02-21T04:09:35.531Z,2.60
2019-02-21T04:12:06.333Z,10.80
2019-02-21T04:14:37.760Z,11.60
2019-02-21T04:17:07.608Z,15.20
2019-02-21T04:19:40.297Z,14.20
2019-02-21T04:22:09.721Z,13.20
2019-02-21T04:24:42.200Z,16.00
2019-02-21T04:27:11.571Z,12.80
2019-02-21T04:29:41.080Z,13.20
2019-02-21T04:32:16.986Z,15.20
2019-02-21T04:34:46.836Z,13.60
2019-02-21T04:37:19.521Z,16.00
2019-02-21T04:39:50.152Z,15.40
2019-02-21T04:42:23.042Z,18.60
2019-02-21T04:44:52.466Z,14.80
2019-02-21T04:47:22.182Z,12.80
2019-02-21T04:49:51.670Z,14.20
2019-02-21T04:52:21.151Z,15.40
2019-02-21T04:54:52.405Z,12.20
2019-02-21T04:57:23.242Z,13.80
2019-02-21T04:59:53.183Z,14.60
2019-02-21T05:02:28.906Z,12.80
2019-02-21T05:04:55.441Z,15.80
2019-02-21T05:07:24.942Z,15.20
2019-02-21T05:09:58.306Z,13.40
2019-02-21T05:12:27.423Z,13.80
2019-02-21T05:14:56.946Z,14.00
2019-02-21T05:17:27.564Z,11.80
2019-02-21T05:19:57.169Z,13.80
2019-02-21T05:22:27.217Z,15.40
2019-02-21T05:24:57.196Z,15.20
2019-02-21T05:27:33.733Z,12.40
2019-02-21T05:30:06.111Z,12.40
2019-02-21T05:32:59.372Z,12.20
2019-02-21T05:35:52.664Z,15.60
2019-02-21T05:38:50.530Z,12.80
2019-02-21T05:41:31.402Z,11.80
2019-02-21T05:44:11.446Z,13.20
2019-02-21T05:46:55.700Z,14.20
2019-02-21T05:49:48.239Z,11.20
2019-02-21T05:52:41.395Z,13.60
2019-02-21T05:55:22.580Z,10.40
2019-02-21T05:57:57.637Z,8.80
2019-02-21T06:00:41.159Z,18.00
2019-02-21T06:03:35.777Z,13.80
2019-02-21T06:06:30.043Z,14.60
2019-02-21T06:09:29.362Z,13.60
2019-02-21T06:12:10.015Z,9.00
2019-02-21T06:14:55.156Z,15.20
2019-02-21T06:17:56.332Z,13.00
2019-02-21T06:20:43.350Z,16.80
2019-02-21T06:23:45.910Z,14.60
2019-02-21T06:26:43.529Z,16.40
2019-02-21T06:29:22.542Z,13.00
2019-02-21T06:31:52.223Z,12.20
2019-02-21T06:34:21.562Z,12.40
2019-02-21T06:36:50.939Z,17.60
2019-02-21T06:39:20.668Z,15.00
2019-02-21T06:41:59.200Z,16.40
2019-02-21T06:44:22.634Z,13.40
2019-02-21T06:46:52.193Z,14.80
2019-02-21T06:49:32.180Z,21.40
2019-02-21T06:51:54.243Z,13.40
2019-02-21T06:54:24.478Z,13.40
2019-02-21T06:56:54.506Z,14.20
2019-02-21T06:59:25.341Z,14.20
2019-02-21T07:01:54.944Z,14.00
2019-02-21T07:04:25.289Z,13.40
2019-02-21T07:09:18.572Z,27.60
2019-02-21T07:11:49.288Z,18.40
2019-02-21T07:14:18.973Z,17.20
2019-02-21T07:16:48.399Z,16.40
2019-02-21T07:19:21.432Z,15.80
2019-02-21T07:21:51.406Z,12.20
2019-02-21T07:24:21.475Z,17.60
2019-02-21T07:26:53.270Z,16.20
2019-02-21T07:29:28.874Z,15.60
2019-02-21T07:31:58.924Z,13.60
2019-02-21T07:34:30.465Z,14.60
2019-02-21T07:37:02.159Z,15.60
2019-02-21T07:39:35.947Z,17.60
2019-02-21T07:42:02.885Z,14.80
2019-02-21T07:44:33.031Z,15.60
2019-02-21T07:47:02.835Z,17.60
2019-02-21T07:49:32.405Z,15.80
2019-02-21T07:52:05.535Z,13.80
2019-02-21T07:54:35.754Z,18.40
2019-02-21T07:57:09.893Z,13.80
2019-02-21T07:59:40.556Z,15.80
2019-02-21T08:02:11.828Z,15.60
2019-02-21T08:04:42.742Z,16.20
2019-02-21T08:07:12.574Z,18.00
2019-02-21T08:09:43.807Z,18.00
2019-02-21T08:12:13.643Z,18.40
2019-02-21T08:14:47.204Z,16.60
2019-02-21T08:17:19.280Z,18.00
2019-02-21T08:19:48.823Z,15.40
2019-02-21T08:22:18.398Z,15.40
2019-02-21T08:24:48.125Z,18.20
2019-02-21T08:27:17.772Z,18.60
2019-02-21T08:29:49.649Z,18.60
2019-02-21T08:32:23.107Z,13.80
2019-02-21T08:34:54.724Z,17.20
2019-02-21T08:37:26.071Z,15.20
2019-02-21T08:39:55.645Z,17.00
2019-02-21T08:42:27.167Z,11.20
2019-02-21T08:44:58.046Z,18.60
2019-02-21T08:47:27.649Z,18.80
2019-02-21T08:50:00.606Z,14.80
2019-02-21T08:52:30.321Z,15.40
2019-02-21T08:55:00.740Z,17.80
2019-02-21T08:57:31.085Z,19.60
2019-02-21T09:00:00.514Z,18.60
2019-02-21T09:02:32.949Z,18.20
2019-02-21T09:05:03.139Z,18.00
2019-02-21T09:07:32.541Z,17.20
2019-02-21T09:10:02.439Z,18.40
2019-02-21T09:12:33.679Z,18.40
2019-02-21T09:15:07.503Z,19.80
2019-02-21T09:17:37.871Z,21.00
2019-02-21T09:20:07.610Z,16.00
2019-02-21T09:22:37.130Z,21.00
2019-02-21T09:25:12.132Z,16.40
2019-02-21T09:27:41.573Z,12.20
2019-02-21T09:30:16.252Z,14.20
2019-02-21T09:32:48.936Z,20.20
2019-02-21T09:35:18.599Z,15.60
2019-02-21T09:37:51.430Z,19.00
2019-02-21T09:40:21.984Z,16.00
2019-02-21T09:42:51.475Z,20.60
2019-02-21T09:45:21.131Z,8.60
2019-02-21T09:47:50.585Z,19.20
2019-02-21T09:50:20.383Z,18.60
2019-02-21T09:52:53.077Z,21.60
2019-02-21T09:55:23.327Z,21.00
2019-02-21T09:57:52.790Z,16.00
2019-02-21T10:00:22.470Z,14.60
2019-02-21T10:02:55.754Z,20.20
2019-02-21T10:05:23.245Z,22.00
2019-02-21T10:07:54.835Z,23.20
2019-02-21T10:10:29.821Z,18.40
2019-02-21T10:13:02.135Z,17.60
2019-02-21T10:15:38.374Z,21.40
2019-02-21T10:18:08.067Z,18.40
2019-02-21T10:20:40.234Z,15.20
2019-02-21T10:23:09.855Z,21.60
2019-02-21T10:25:42.196Z,17.80
2019-02-21T10:28:14.102Z,18.00
2019-02-21T10:30:43.696Z,22.60
2019-02-21T10:33:13.171Z,21.80
2019-02-21T10:35:42.858Z,21.20
2019-02-21T10:38:12.269Z,22.60
2019-02-21T10:40:44.431Z,19.40
2019-02-21T10:43:20.128Z,25.40
2019-02-21T10:45:49.724Z,20.60
2019-02-21T10:48:19.249Z,20.80
2019-02-21T10:50:48.810Z,14.60
2019-02-21T10:53:20.273Z,24.80
2019-02-21T10:55:50.187Z,23.20
2019-02-21T10:58:19.666Z,18.80
2019-02-21T11:00:49.240Z,21.40
2019-02-21T11:03:19.278Z,22.80
2019-02-21T11:05:48.847Z,22.00
2019-02-21T11:08:18.781Z,17.00
2019-02-21T11:10:48.382Z,23.40
2019-02-21T11:13:18.101Z,24.40
2019-02-21T11:15:48.669Z,21.20
2019-02-21T11:18:18.869Z,22.80
2019-02-21T11:20:48.283Z,21.20
2019-02-21T11:23:19.309Z,27.80
2019-02-21T11:25:50.052Z,25.80
2019-02-21T11:28:20.576Z,22.00
2019-02-21T11:30:50.409Z,20.60
2019-02-21T11:33:20.009Z,17.40
2019-02-21T11:35:49.836Z,22.00
2019-02-21T11:38:19.331Z,20.20
2019-02-21T11:40:51.140Z,27.20
2019-02-21T11:43:20.827Z,22.20
2019-02-21T11:45:57.005Z,18.00
2019-02-21T11:48:32.868Z,24.60
2019-02-21T11:51:12.112Z,24.60
2019-02-21T11:53:46.247Z,21.20
2019-02-21T11:56:16.139Z,24.20
2019-02-21T11:58:46.220Z,26.00
2019-02-21T12:01:19.042Z,24.60
2019-02-21T12:03:50.425Z,24.20
2019-02-21T12:06:20.345Z,26.80
2019-02-21T12:08:50.080Z,26.60
2019-02-21T12:11:20.305Z,19.20
2019-02-21T12:16:29.303Z,26.20
2019-02-21T12:18:59.006Z,28.40
2019-02-21T12:21:31.280Z,24.40
2019-02-21T12:24:02.317Z,24.80
2019-02-21T12:26:32.143Z,26.40
2019-02-21T12:29:02.155Z,26.20
2019-02-21T12:31:31.949Z,26.60
2019-02-21T12:34:01.642Z,28.20
2019-02-21T12:36:34.404Z,29.60
2019-02-21T12:39:04.919Z,28.60
2019-02-21T12:41:37.174Z,20.60
2019-02-21T12:44:07.168Z,22.60
2019-02-21T12:46:39.921Z,24.00
2019-02-21T12:49:10.810Z,19.40
2019-02-21T12:51:41.965Z,26.20
2019-02-21T12:54:11.685Z,18.40
2019-02-21T12:56:43.638Z,18.40
2019-02-21T12:59:13.831Z,20.60
2019-02-21T13:01:43.322Z,22.00
2019-02-21T13:04:13.720Z,13.80
2019-02-21T13:06:43.651Z,24.40
2019-02-21T13:09:13.468Z,22.80
2019-02-21T13:11:43.152Z,24.80
2019-02-21T13:14:12.781Z,22.80
2019-02-21T13:16:42.423Z,24.20
2019-02-21T13:19:12.185Z,23.00
2019-02-21T13:21:45.049Z,22.00
2019-02-21T13:24:16.198Z,25.00
2019-02-21T13:26:45.820Z,25.40
2019-02-21T13:29:15.249Z,25.00
2019-02-21T13:35:12.774Z,17.60
2019-02-21T13:37:42.234Z,17.00
2019-02-21T13:40:13.365Z,20.20
2019-02-21T13:42:43.003Z,18.20
2019-02-21T13:45:13.717Z,22.40
2019-02-21T13:47:43.590Z,14.00
2019-02-21T13:50:17.125Z,19.80
2019-02-21T13:52:49.695Z,17.20
2019-02-21T13:55:19.154Z,18.60
2019-02-21T13:57:49.306Z,20.00
2019-02-21T14:00:19.287Z,11.20
2019-02-21T14:02:49.007Z,18.80
2019-02-21T14:05:18.372Z,18.40
2019-02-21T14:07:48.179Z,18.60
2019-02-21T14:10:18.086Z,15.80
2019-02-21T14:12:49.393Z,20.60
2019-02-21T14:15:22.556Z,14.80
2019-02-21T14:17:52.030Z,14.20
2019-02-21T14:20:23.141Z,16.80
2019-02-21T14:22:52.665Z,16.00
2019-02-21T14:25:22.562Z,16.60
2019-02-21T14:27:52.130Z,12.40
2019-02-21T14:30:22.287Z,15.00
2019-02-21T14:32:58.134Z,16.80
2019-02-21T14:35:30.495Z,15.60
2019-02-21T14:38:00.134Z,15.60
2019-02-21T14:40:30.399Z,17.60
2019-02-21T14:43:00.058Z,19.00
2019-02-21T14:45:32.703Z,17.60
2019-02-21T14:48:13.177Z,14.40
2019-02-21T14:50:43.308Z,11.20
2019-02-21T14:53:27.374Z,18.00
2019-02-21T14:55:57.207Z,17.40
2019-02-21T14:58:30.206Z,12.40
2019-02-21T15:01:03.755Z,18.80
2019-02-21T15:03:36.419Z,22.00
2019-02-21T15:06:11.168Z,14.20
2019-02-21T15:08:41.014Z,15.60
2019-02-21T15:11:10.762Z,18.00
2019-02-21T15:13:43.150Z,15.20
2019-02-21T15:16:14.846Z,14.60
2019-02-21T15:18:44.377Z,15.80
2019-02-21T15:21:14.355Z,13.00
2019-02-21T15:23:43.987Z,12.80
2019-02-21T15:26:13.667Z,11.60
2019-02-21T15:28:44.540Z,13.80
2019-02-21T15:31:14.413Z,9.60
2019-02-21T15:33:43.921Z,13.80
2019-02-21T15:36:14.721Z,10.80
2019-02-21T15:38:44.566Z,15.20
2019-02-21T15:41:14.333Z,12.80
2019-02-21T15:43:44.131Z,16.60
2019-02-21T15:46:15.034Z,15.00
2019-02-21T15:48:45.639Z,12.80
2019-02-21T15:51:15.659Z,13.00
2019-02-21T15:53:48.439Z,11.60
2019-02-21T15:56:25.751Z,13.40
2019-02-21T15:58:55.568Z,10.00
2019-02-21T16:01:24.961Z,15.60
2019-02-21T16:03:54.700Z,15.40
2019-02-21T16:06:26.379Z,15.00
2019-02-21T16:08:56.304Z,16.00
2019-02-21T16:11:26.615Z,12.20
2019-02-21T16:14:03.237Z,15.40
2019-02-21T16:16:27.558Z,10.80
2019-02-21T16:19:06.450Z,15.00
2019-02-21T16:21:36.347Z,13.40
2019-02-21T16:24:09.398Z,16.60
2019-02-21T16:26:39.473Z,15.00
2019-02-21T16:29:09.153Z,16.80
2019-02-21T16:31:39.032Z,15.80
2019-02-21T16:34:09.388Z,17.60
2019-02-21T16:36:38.918Z,18.40
2019-02-21T16:39:08.296Z,16.20
2019-02-21T16:41:37.733Z,17.20
2019-02-21T16:44:09.379Z,16.40
2019-02-21T16:46:39.247Z,21.40
2019-02-21T16:49:09.699Z,16.60
2019-02-21T16:51:39.682Z,17.80
2019-02-21T16:54:09.434Z,15.00
2019-02-21T16:56:39.329Z,18.00
2019-02-21T16:59:09.191Z,19.00
2019-02-21T17:01:39.158Z,15.60
2019-02-21T17:04:09.969Z,15.80
2019-02-21T17:06:39.548Z,20.00
2019-02-21T17:09:11.398Z,18.60
2019-02-21T17:11:41.347Z,18.60
2019-02-21T17:14:23.939Z,19.60
2019-02-21T17:16:53.669Z,20.20
2019-02-21T17:19:24.131Z,20.60
2019-02-21T17:21:57.174Z,20.40
2019-02-21T17:24:26.898Z,20.80
2019-02-21T17:26:59.322Z,21.80
2019-02-21T17:29:28.948Z,14.60
2019-02-21T17:31:58.926Z,17.20
2019-02-21T17:34:29.791Z,19.80
2019-02-21T17:37:00.199Z,21.80
2019-02-21T17:39:32.848Z,20.80
2019-02-21T17:42:02.646Z,21.40
2019-02-21T17:44:32.140Z,19.40
2019-02-21T17:47:01.551Z,17.20
2019-02-21T17:49:31.862Z,21.60
2019-02-21T17:52:01.611Z,16.20
2019-02-21T17:54:33.140Z,22.80
2019-02-21T17:57:04.675Z,18.80
2019-02-21T17:59:37.311Z,16.80
2019-02-21T18:02:08.183Z,22.80
2019-02-21T18:04:37.805Z,21.20
2019-02-21T18:07:07.291Z,26.80
2019-02-21T18:09:38.425Z,20.40
2019-02-21T18:12:08.601Z,20.20
2019-02-21T18:14:38.191Z,17.60
2019-02-21T18:17:07.840Z,21.00
2019-02-21T18:19:44.207Z,22.00
2019-02-21T18:22:19.223Z,16.00
2019-02-21T18:24:49.226Z,19.80
2019-02-21T18:27:21.246Z,21.00
2019-02-21T18:29:50.933Z,18.80
2019-02-21T18:32:20.337Z,24.40
2019-02-21T18:34:51.603Z,24.20
2019-02-21T18:37:22.800Z,23.20
2019-02-21T18:39:56.236Z,19.40
2019-02-21T18:42:25.865Z,19.80
2019-02-21T18:44:55.280Z,19.20
2019-02-21T18:47:25.581Z,24.00
2019-02-21T18:49:55.755Z,24.60
2019-02-21T18:52:28.133Z,25.40
2019-02-21T18:54:57.889Z,21.60
2019-02-21T18:57:28.090Z,21.80
2019-02-21T18:59:57.782Z,18.80
2019-02-21T19:02:29.999Z,21.00
2019-02-21T19:04:59.470Z,21.20
2019-02-21T19:07:29.313Z,20.60
2019-02-21T19:09:58.974Z,26.00
2019-02-21T19:12:29.129Z,27.40
2019-02-21T19:15:04.851Z,22.00
2019-02-21T19:17:34.660Z,18.80
2019-02-21T19:20:27.359Z,22.80
2019-02-21T19:22:59.015Z,19.00
2019-02-21T19:25:29.118Z,16.60
2019-02-21T19:27:59.170Z,24.00
2019-02-21T19:30:35.137Z,19.40
2019-02-21T19:33:05.253Z,21.00
2019-02-21T19:35:35.092Z,22.80
2019-02-21T19:38:10.506Z,21.20
2019-02-21T19:40:38.246Z,24.40
2019-02-21T19:43:08.270Z,23.60
2019-02-21T19:45:37.819Z,20.40
2019-02-21T19:48:08.881Z,20.80
2019-02-21T19:50:40.315Z,21.80
2019-02-21T19:53:11.277Z,23.80
2019-02-21T19:55:42.247Z,23.20
2019-02-21T19:58:13.914Z,16.80
2019-02-21T20:00:43.632Z,27.20
2019-02-21T20:03:16.029Z,24.60
2019-02-21T20:05:45.740Z,19.60
2019-02-21T20:08:21.658Z,27.20
2019-02-21T20:11:02.509Z,21.20
2019-02-21T20:13:34.498Z,27.60
2019-02-21T20:16:07.369Z,21.20
2019-02-21T20:18:45.885Z,27.60
2019-02-21T20:21:21.830Z,24.40
2019-02-21T20:23:56.757Z,24.00
2019-02-21T20:26:26.547Z,28.40
2019-02-21T20:28:56.419Z,26.60
2019-02-21T20:31:26.905Z,24.00
2019-02-21T20:34:03.097Z,25.80
2019-02-21T20:36:33.182Z,23.60
2019-02-21T20:39:04.338Z,19.80
2019-02-21T20:41:38.109Z,23.40
2019-02-21T20:44:07.533Z,29.80
2019-02-21T20:46:38.958Z,30.00
2019-02-21T20:49:11.576Z,28.60
2019-02-21T20:51:46.513Z,28.40
2019-02-21T20:54:17.691Z,29.80
2019-02-21T20:56:53.417Z,33.00
2019-02-21T20:59:23.405Z,33.00
2019-02-21T21:01:55.818Z,35.60
2019-02-21T21:04:25.395Z,28.40
2019-02-21T21:06:54.910Z,33.00
2019-02-21T21:09:32.157Z,32.20
2019-02-21T21:12:02.365Z,34.20
2019-02-21T21:14:31.986Z,27.60
2019-02-21T21:17:01.375Z,30.20
2019-02-21T21:19:36.666Z,25.40
2019-02-21T21:22:07.459Z,25.80
2019-02-21T21:24:40.250Z,30.20
2019-02-21T21:27:12.129Z,32.40
2019-02-21T21:29:41.861Z,31.80
2019-02-21T21:32:12.263Z,28.80
2019-02-21T21:34:41.813Z,25.20
2019-02-21T21:37:11.391Z,32.00
2019-02-21T21:39:42.732Z,30.00
2019-02-21T21:42:12.497Z,33.80
2019-02-21T21:44:42.763Z,32.20
2019-02-21T21:47:12.280Z,28.20
2019-02-21T21:49:43.517Z,25.00
2019-02-21T21:52:13.010Z,18.00
2019-02-21T21:54:46.823Z,28.20
2019-02-21T21:57:17.886Z,29.60
2019-02-21T21:59:47.780Z,30.20
2019-02-21T22:02:17.654Z,29.20
2019-02-21T22:04:48.421Z,30.00
2019-02-21T22:07:19.164Z,31.40
2019-02-21T22:09:48.863Z,27.40
2019-02-21T22:12:20.174Z,24.60
2019-02-21T22:14:50.253Z,27.40
2019-02-21T22:17:20.140Z,27.20
2019-02-21T22:19:49.999Z,27.00
2019-02-21T22:22:19.739Z,25.20
2019-02-21T22:24:49.577Z,24.20
2019-02-21T22:27:25.543Z,24.20
2019-02-21T22:29:55.138Z,23.20
2019-02-21T22:32:28.061Z,20.00
2019-02-21T22:35:00.821Z,26.20
2019-02-21T22:37:31.292Z,20.20
2019-02-21T22:40:01.323Z,21.00
2019-02-21T22:42:32.434Z,17.20
2019-02-21T22:45:02.317Z,21.60
2019-02-21T22:47:31.969Z,24.80
2019-02-21T22:50:02.532Z,24.40
2019-02-21T22:52:34.092Z,24.60
2019-02-21T22:55:09.765Z,21.20
2019-02-21T22:57:39.670Z,22.00
2019-02-21T23:01:01.859Z,22.80
2019-02-21T23:03:59.385Z,23.40
2019-02-21T23:07:08.063Z,23.40
2019-02-21T23:09:37.780Z,20.40
2019-02-21T23:12:07.442Z,21.60
2019-02-21T23:14:37.126Z,21.80
2019-02-21T23:17:07.437Z,14.60
2019-02-21T23:19:37.180Z,21.20
2019-02-21T23:22:07.139Z,22.20
2019-02-21T23:24:39.100Z,18.60
2019-02-21T23:27:09.175Z,17.20
2019-02-21T23:29:38.633Z,21.20
2019-02-21T23:32:08.341Z,15.60
2019-02-21T23:34:42.755Z,18.40
2019-02-21T23:37:12.256Z,20.20
2019-02-21T23:39:42.271Z,20.80
2019-02-21T23:42:11.668Z,16.20
2019-02-21T23:44:41.279Z,22.00
2019-02-21T23:47:10.916Z,13.80
2019-02-21T23:49:40.660Z,19.80
2019-02-21T23:52:10.151Z,21.40
2019-02-21T23:54:41.659Z,19.60
2019-02-21T23:57:11.581Z,21.20
2019-02-21T23:59:40.960Z,17.80
